Emerald Leader — C6WP4 — position and weather

sailwx.info

Track history (hours):
 
Tides and Currents Weather Stations Pressure Air Temp Water Temp Dewpoint Dewpoint Depression Visibility Wind Speed Wind Dir Waves Ship Positions

Emerald Leader

Last reported at 2017-Mar-26 05:33 UTC. Time now 2017-Mar-26 05:33 UTC.
Position N 51°10' W 005°21'.

Length 176 m; draft 8.1 m.

Type: Cargo ship. MMSI: 308688000.

Date/timePositionNaut miles runAvg speedWind from/ knotsBaromVisibWave heightAir tempDewpointWater temp
2017-Mar-26 05:33N 51°10' W 005°21'8 8.2
2017-Mar-26 04:33N 51°02' W 005°24'10 9.6
2017-Mar-26 03:34N 50°53' W 005°31'10 9.8
2017-Mar-26 02:34N 50°44' W 005°38'10 9.9
2017-Mar-26 01:33N 50°35' W 005°44'1312.6
2017-Mar-26 00:34N 50°24' W 005°53'1615.7
2017-Mar-25 23:34N 50°08' W 005°53'3712.3
2017-Mar-25 20:33N 49°52' W 005°01'1716.1
2017-Mar-25 19:31N 49°54' W 004°36'3015.3
2017-Mar-25 17:33N 49°56' W 003°49'1414.4
2017-Mar-25 16:34N 49°58' W 003°27'1514.5
2017-Mar-25 15:33N 49°59' W 003°05'1515.1
2017-Mar-25 14:34N 50°01' W 002°41'2116.6
2017-Mar-25 13:17N 50°08' W 002°10'1318.0
2017-Mar-25 12:34N 50°10' W 001°50'1818.2
2017-Mar-25 11:33N 50°15' W 001°23'1817.7
2017-Mar-25 10:33N 50°20' W 000°56'1716.2
2017-Mar-25 09:31N 50°24' W 000°31'1515.4
2017-Mar-25 08:33N 50°28' W 000°08'1514.6
2017-Mar-25 07:32N 50°32' E 000°15'1414.2
2017-Mar-25 06:33N 50°36' E 000°35'1515.2
2017-Mar-25 05:34N 50°45' E 000°54'1716.5
2017-Mar-25 04:33N 50°56' E 001°14'1717.3
2017-Mar-25 03:33N 51°07' E 001°35'1616.2
2017-Mar-25 02:33N 51°20' E 001°53'1212.3
2017-Mar-25 01:34N 51°22' E 002°12'1414.2
2017-Mar-25 00:34N 51°23' E 002°34'1010.0
2017-Mar-24 23:34N 51°23' E 002°51'1413.6
2017-Mar-24 22:33N 51°21' E 003°12'2 2.3
2017-Mar-24 21:33N 51°19' E 003°13'0 0.1
2017-Mar-24 20:33N 51°19' E 003°13'0 0.0
2017-Mar-24 19:33N 51°19' E 003°13'0 0.0
2017-Mar-24 18:33N 51°19' E 003°13'0 0.0
2017-Mar-24 17:33N 51°19' E 003°13'0 0.0
2017-Mar-24 16:33N 51°19' E 003°13'0 0.0
2017-Mar-24 15:33N 51°19' E 003°13'0 0.0
2017-Mar-24 14:33N 51°19' E 003°13'0 0.0
2017-Mar-24 13:33N 51°19' E 003°13'0 0.0
2017-Mar-24 12:33N 51°19' E 003°13'0 0.0
2017-Mar-24 11:33N 51°19' E 003°13'0 0.0
2017-Mar-24 10:33N 51°19' E 003°13'0 0.0
2017-Mar-24 09:33N 51°19' E 003°13'0 0.0
2017-Mar-24 08:33N 51°19' E 003°13'0 0.0
2017-Mar-24 07:33N 51°19' E 003°13'0 0.0
2017-Mar-24 06:33N 51°19' E 003°13'0 0.0
2017-Mar-24 05:33N 51°19' E 003°13'0 0.0
2017-Mar-24 04:33N 51°19' E 003°13'0 0.0
2017-Mar-24 03:33N 51°19' E 003°13'0 0.0
2017-Mar-24 02:30N 51°19' E 003°13'0 0.0
2017-Mar-24 01:30N 51°19' E 003°13'0 0.0
2017-Mar-24 00:33N 51°19' E 003°13'1 0.8
2017-Mar-23 23:32N 51°18' E 003°14'0 0.0
2017-Mar-23 22:29N 51°18' E 003°14'0 0.0
2017-Mar-23 21:32N 51°18' E 003°14'0 0.0
2017-Mar-23 20:32N 51°18' E 003°14'0 0.0
2017-Mar-23 19:32N 51°18' E 003°14'0 0.0
2017-Mar-23 18:32N 51°18' E 003°14'0 0.0
2017-Mar-23 17:32N 51°18' E 003°14'0 0.0
2017-Mar-23 16:29N 51°18' E 003°14'0 0.0
2017-Mar-23 15:32N 51°18' E 003°14'0 0.0
2017-Mar-23 14:32N 51°18' E 003°14'0 0.0
2017-Mar-23 13:32N 51°18' E 003°14'0 0.0
2017-Mar-23 12:32N 51°18' E 003°14'0 0.0
2017-Mar-23 11:32N 51°18' E 003°14'0 0.0
2017-Mar-23 10:29N 51°18' E 003°14'0 0.0
2017-Mar-23 09:32N 51°18' E 003°14'0 0.0
2017-Mar-23 08:32N 51°18' E 003°14'0 0.0
2017-Mar-23 07:32N 51°18' E 003°14'0 0.0
2017-Mar-23 06:32N 51°18' E 003°14'0 0.0
2017-Mar-23 05:32N 51°18' E 003°14'0 0.0
2017-Mar-23 04:32N 51°18' E 003°14'0 0.0
2017-Mar-23 03:32N 51°18' E 003°14'0 0.0
2017-Mar-23 02:32N 51°18' E 003°14'2 1.7
2017-Mar-23 01:34N 51°20' E 003°13'1 0.6
2017-Mar-23 00:33N 51°20' E 003°13'1212.1
2017-Mar-22 23:34N 51°25' E 002°55'8 8.1
2017-Mar-22 22:34N 51°27' E 002°42'9410.4
2017-Mar-22 13:31N 52°51' E 003°50'1414.5
2017-Mar-22 12:33N 53°01' E 004°06'13913.3
2017-Mar-22 02:05N 53°59' E 007°40'814.1
2017-Mar-22 01:31N 53°53' E 007°49'1213.0
2017-Mar-22 00:33N 53°48' E 008°08'1616.2
2017-Mar-21 23:33N 53°37' E 008°29'4 4.1
2017-Mar-21 22:33N 53°34' E 008°33'0 0.5
2017-Mar-21 21:33N 53°35' E 008°34'0 0.0
2017-Mar-21 20:33N 53°35' E 008°34'0 0.0
2017-Mar-21 19:33N 53°35' E 008°34'0 0.0
2017-Mar-21 18:33N 53°35' E 008°34'0 0.0
2017-Mar-21 17:33N 53°35' E 008°34'0 0.0
2017-Mar-21 16:33N 53°35' E 008°34'0 0.0
2017-Mar-21 15:33N 53°35' E 008°34'0 0.0
2017-Mar-21 14:33N 53°35' E 008°34'0 0.0
2017-Mar-21 13:33N 53°35' E 008°34'1 0.8
2017-Mar-21 12:33N 53°34' E 008°34'0 0.4
2017-Mar-21 11:34N 53°33' E 008°33'8 7.8
2017-Mar-21 10:33N 53°39' E 008°24'1313.3
2017-Mar-21 09:33N 53°48' E 008°08'1312.8
2017-Mar-21 08:33N 53°53' E 007°48'12312.3
2017-Mar-20 22:33N 53°12' E 004°33'1616.2
2017-Mar-20 21:33N 52°58' E 004°19'1715.9
2017-Mar-20 20:28N 52°44' E 004°02'9515.7
2017-Mar-20 14:25N 51°33' E 002°18'1314.5
2017-Mar-20 13:34N 51°22' E 002°10'1313.5
2017-Mar-20 12:33N 51°11' E 001°56'1414.1
2017-Mar-20 11:33N 51°03' E 001°38'7013.2
2017-Mar-20 06:17N 50°20' E 000°11'1114.5
2017-Mar-20 05:34N 50°18' W 000°05'3611.3
2017-Mar-20 02:23N 50°33' W 000°56'1011.7
2017-Mar-20 01:33N 50°42' W 000°58'1313.4
2017-Mar-20 00:33N 50°47' W 001°19'8 8.1
2017-Mar-19 23:33N 50°54' W 001°25'0 0.1
2017-Mar-19 21:32N 50°54' W 001°25'0 0.0
2017-Mar-19 18:32N 50°54' W 001°25'0 0.0
2017-Mar-19 16:13N 50°54' W 001°25'5 6.9
2017-Mar-19 15:34N 50°51' W 001°20'1010.1
2017-Mar-19 14:33N 50°45' W 001°07'1010.0
2017-Mar-19 13:33N 50°36' W 000°60'1712.0
2017-Mar-19 12:10N 50°20' W 001°07'1011.6
2017-Mar-19 11:20N 50°11' W 001°08'1215.0
2017-Mar-19 10:34N 50°07' W 001°25'1414.4
2017-Mar-19 09:33N 50°03' W 001°47'3015.0
2017-Mar-19 07:33N 49°55' W 002°32'1414.2
2017-Mar-19 06:33N 49°51' W 002°53'1414.0
2017-Mar-19 05:33N 49°44' W 003°11'1414.0
2017-Mar-19 04:33N 49°37' W 003°30'1414.1
2017-Mar-19 03:33N 49°30' W 003°49'1414.0
2017-Mar-19 02:34N 49°23' W 004°07'1413.8
2017-Mar-19 01:33N 49°15' W 004°25'1413.8
2017-Mar-19 00:32N 49°08' W 004°43'2814.0
2017-Mar-18 22:32N 48°53' W 005°20'1414.5
2017-Mar-18 21:33N 48°45' W 005°38'1514.5
2017-Mar-18 20:34N 48°32' W 005°47'1514.7
2017-Mar-18 19:33N 48°19' W 005°57'1515.2
2017-Mar-18 18:33N 48°06' W 006°08'1515.3
2017-Mar-18 17:34N 47°52' W 006°19'2914.5
2017-Mar-18 15:33N 47°26' W 006°39'37710.2
2017-Mar-17 02:30N 41°26' W 009°15'1515.9
2017-Mar-17 01:33N 41°11' W 009°20'6315.8
2017-Mar-16 21:33N 40°10' W 009°42'1615.7
2017-Mar-16 20:33N 39°55' W 009°46'1615.6
2017-Mar-16 19:33N 39°39' W 009°51'1615.8
2017-Mar-16 18:33N 39°24' W 009°52'1616.2
2017-Mar-16 17:33N 39°07' W 009°53'1616.1
2017-Mar-16 16:33N 38°51' W 009°53'1616.1
2017-Mar-16 15:33N 38°35' W 009°50'1616.0
2017-Mar-16 14:33N 38°20' W 009°45'1616.2
2017-Mar-16 13:33N 38°04' W 009°40'1716.7
2017-Mar-16 12:33N 37°48' W 009°36'7514.7
2017-Mar-16 07:28N 36°40' W 008°55'  
Track history (hours):
 
Tides and Currents Weather Stations Pressure Air Temp Water Temp Dewpoint Dewpoint Depression Visibility Wind Speed Wind Dir Waves Ship Positions

Emerald Leader

Last reported at 2017-Mar-26 05:33 UTC. Time now 2017-Mar-26 05:33 UTC.
Position N 51°10' W 005°21'.

Length 176 m; draft 8.1 m.

Type: Cargo ship. MMSI: 308688000.

Date/timePositionNaut miles runAvg speedWind from/ knotsBaromVisibWave heightAir tempDewpointWater temp
2017-Mar-26 05:33N 51°10' W 005°21'8 8.2
2017-Mar-26 04:33N 51°02' W 005°24'10 9.6
2017-Mar-26 03:34N 50°53' W 005°31'10 9.8
2017-Mar-26 02:34N 50°44' W 005°38'10 9.9
2017-Mar-26 01:33N 50°35' W 005°44'1312.6
2017-Mar-26 00:34N 50°24' W 005°53'1615.7
2017-Mar-25 23:34N 50°08' W 005°53'3712.3
2017-Mar-25 20:33N 49°52' W 005°01'1716.1
2017-Mar-25 19:31N 49°54' W 004°36'3015.3
2017-Mar-25 17:33N 49°56' W 003°49'1414.4
2017-Mar-25 16:34N 49°58' W 003°27'1514.5
2017-Mar-25 15:33N 49°59' W 003°05'1515.1
2017-Mar-25 14:34N 50°01' W 002°41'2116.6
2017-Mar-25 13:17N 50°08' W 002°10'1318.0
2017-Mar-25 12:34N 50°10' W 001°50'1818.2
2017-Mar-25 11:33N 50°15' W 001°23'1817.7
2017-Mar-25 10:33N 50°20' W 000°56'1716.2
2017-Mar-25 09:31N 50°24' W 000°31'1515.4
2017-Mar-25 08:33N 50°28' W 000°08'1514.6
2017-Mar-25 07:32N 50°32' E 000°15'1414.2
2017-Mar-25 06:33N 50°36' E 000°35'1515.2
2017-Mar-25 05:34N 50°45' E 000°54'1716.5
2017-Mar-25 04:33N 50°56' E 001°14'1717.3
2017-Mar-25 03:33N 51°07' E 001°35'1616.2
2017-Mar-25 02:33N 51°20' E 001°53'1212.3
2017-Mar-25 01:34N 51°22' E 002°12'1414.2
2017-Mar-25 00:34N 51°23' E 002°34'1010.0
2017-Mar-24 23:34N 51°23' E 002°51'1413.6
2017-Mar-24 22:33N 51°21' E 003°12'2 2.3
2017-Mar-24 21:33N 51°19' E 003°13'0 0.1
2017-Mar-24 20:33N 51°19' E 003°13'0 0.0
2017-Mar-24 19:33N 51°19' E 003°13'0 0.0
2017-Mar-24 18:33N 51°19' E 003°13'0 0.0
2017-Mar-24 17:33N 51°19' E 003°13'0 0.0
2017-Mar-24 16:33N 51°19' E 003°13'0 0.0
2017-Mar-24 15:33N 51°19' E 003°13'0 0.0
2017-Mar-24 14:33N 51°19' E 003°13'0 0.0
2017-Mar-24 13:33N 51°19' E 003°13'0 0.0
2017-Mar-24 12:33N 51°19' E 003°13'0 0.0
2017-Mar-24 11:33N 51°19' E 003°13'0 0.0
2017-Mar-24 10:33N 51°19' E 003°13'0 0.0
2017-Mar-24 09:33N 51°19' E 003°13'0 0.0
2017-Mar-24 08:33N 51°19' E 003°13'0 0.0
2017-Mar-24 07:33N 51°19' E 003°13'0 0.0
2017-Mar-24 06:33N 51°19' E 003°13'0 0.0
2017-Mar-24 05:33N 51°19' E 003°13'0 0.0
2017-Mar-24 04:33N 51°19' E 003°13'0 0.0
2017-Mar-24 03:33N 51°19' E 003°13'0 0.0
2017-Mar-24 02:30N 51°19' E 003°13'0 0.0
2017-Mar-24 01:30N 51°19' E 003°13'0 0.0
2017-Mar-24 00:33N 51°19' E 003°13'1 0.8
2017-Mar-23 23:32N 51°18' E 003°14'0 0.0
2017-Mar-23 22:29N 51°18' E 003°14'0 0.0
2017-Mar-23 21:32N 51°18' E 003°14'0 0.0
2017-Mar-23 20:32N 51°18' E 003°14'0 0.0
2017-Mar-23 19:32N 51°18' E 003°14'0 0.0
2017-Mar-23 18:32N 51°18' E 003°14'0 0.0
2017-Mar-23 17:32N 51°18' E 003°14'0 0.0
2017-Mar-23 16:29N 51°18' E 003°14'0 0.0
2017-Mar-23 15:32N 51°18' E 003°14'0 0.0
2017-Mar-23 14:32N 51°18' E 003°14'0 0.0
2017-Mar-23 13:32N 51°18' E 003°14'0 0.0
2017-Mar-23 12:32N 51°18' E 003°14'0 0.0
2017-Mar-23 11:32N 51°18' E 003°14'0 0.0
2017-Mar-23 10:29N 51°18' E 003°14'0 0.0
2017-Mar-23 09:32N 51°18' E 003°14'0 0.0
2017-Mar-23 08:32N 51°18' E 003°14'0 0.0
2017-Mar-23 07:32N 51°18' E 003°14'0 0.0
2017-Mar-23 06:32N 51°18' E 003°14'0 0.0
2017-Mar-23 05:32N 51°18' E 003°14'0 0.0
2017-Mar-23 04:32N 51°18' E 003°14'0 0.0
2017-Mar-23 03:32N 51°18' E 003°14'0 0.0
2017-Mar-23 02:32N 51°18' E 003°14'2 1.7
2017-Mar-23 01:34N 51°20' E 003°13'1 0.6
2017-Mar-23 00:33N 51°20' E 003°13'1212.1
2017-Mar-22 23:34N 51°25' E 002°55'8 8.1
2017-Mar-22 22:34N 51°27' E 002°42'9410.4
2017-Mar-22 13:31N 52°51' E 003°50'1414.5
2017-Mar-22 12:33N 53°01' E 004°06'13913.3
2017-Mar-22 02:05N 53°59' E 007°40'814.1
2017-Mar-22 01:31N 53°53' E 007°49'1213.0
2017-Mar-22 00:33N 53°48' E 008°08'1616.2
2017-Mar-21 23:33N 53°37' E 008°29'4 4.1
2017-Mar-21 22:33N 53°34' E 008°33'0 0.5
2017-Mar-21 21:33N 53°35' E 008°34'0 0.0
2017-Mar-21 20:33N 53°35' E 008°34'0 0.0
2017-Mar-21 19:33N 53°35' E 008°34'0 0.0
2017-Mar-21 18:33N 53°35' E 008°34'0 0.0
2017-Mar-21 17:33N 53°35' E 008°34'0 0.0
2017-Mar-21 16:33N 53°35' E 008°34'0 0.0
2017-Mar-21 15:33N 53°35' E 008°34'0 0.0
2017-Mar-21 14:33N 53°35' E 008°34'0 0.0
2017-Mar-21 13:33N 53°35' E 008°34'1 0.8
2017-Mar-21 12:33N 53°34' E 008°34'0 0.4
2017-Mar-21 11:34N 53°33' E 008°33'8 7.8
2017-Mar-21 10:33N 53°39' E 008°24'1313.3
2017-Mar-21 09:33N 53°48' E 008°08'1312.8
2017-Mar-21 08:33N 53°53' E 007°48'12312.3
2017-Mar-20 22:33N 53°12' E 004°33'1616.2
2017-Mar-20 21:33N 52°58' E 004°19'1715.9
2017-Mar-20 20:28N 52°44' E 004°02'9515.7
2017-Mar-20 14:25N 51°33' E 002°18'1314.5
2017-Mar-20 13:34N 51°22' E 002°10'1313.5
2017-Mar-20 12:33N 51°11' E 001°56'1414.1
2017-Mar-20 11:33N 51°03' E 001°38'7013.2
2017-Mar-20 06:17N 50°20' E 000°11'1114.5
2017-Mar-20 05:34N 50°18' W 000°05'3611.3
2017-Mar-20 02:23N 50°33' W 000°56'1011.7
2017-Mar-20 01:33N 50°42' W 000°58'1313.4
2017-Mar-20 00:33N 50°47' W 001°19'8 8.1
2017-Mar-19 23:33N 50°54' W 001°25'0 0.1
2017-Mar-19 21:32N 50°54' W 001°25'0 0.0
2017-Mar-19 18:32N 50°54' W 001°25'0 0.0
2017-Mar-19 16:13N 50°54' W 001°25'5 6.9
2017-Mar-19 15:34N 50°51' W 001°20'1010.1
2017-Mar-19 14:33N 50°45' W 001°07'1010.0
2017-Mar-19 13:33N 50°36' W 000°60'1712.0
2017-Mar-19 12:10N 50°20' W 001°07'1011.6
2017-Mar-19 11:20N 50°11' W 001°08'1215.0
2017-Mar-19 10:34N 50°07' W 001°25'1414.4
2017-Mar-19 09:33N 50°03' W 001°47'3015.0
2017-Mar-19 07:33N 49°55' W 002°32'1414.2
2017-Mar-19 06:33N 49°51' W 002°53'1414.0
2017-Mar-19 05:33N 49°44' W 003°11'1414.0
2017-Mar-19 04:33N 49°37' W 003°30'1414.1
2017-Mar-19 03:33N 49°30' W 003°49'1414.0
2017-Mar-19 02:34N 49°23' W 004°07'1413.8
2017-Mar-19 01:33N 49°15' W 004°25'1413.8
2017-Mar-19 00:32N 49°08' W 004°43'2814.0
2017-Mar-18 22:32N 48°53' W 005°20'1414.5
2017-Mar-18 21:33N 48°45' W 005°38'1514.5
2017-Mar-18 20:34N 48°32' W 005°47'1514.7
2017-Mar-18 19:33N 48°19' W 005°57'1515.2
2017-Mar-18 18:33N 48°06' W 006°08'1515.3
2017-Mar-18 17:34N 47°52' W 006°19'2914.5
2017-Mar-18 15:33N 47°26' W 006°39'37710.2
2017-Mar-17 02:30N 41°26' W 009°15'1515.9
2017-Mar-17 01:33N 41°11' W 009°20'6315.8
2017-Mar-16 21:33N 40°10' W 009°42'1615.7
2017-Mar-16 20:33N 39°55' W 009°46'1615.6
2017-Mar-16 19:33N 39°39' W 009°51'1615.8
2017-Mar-16 18:33N 39°24' W 009°52'1616.2
2017-Mar-16 17:33N 39°07' W 009°53'1616.1
2017-Mar-16 16:33N 38°51' W 009°53'1616.1
2017-Mar-16 15:33N 38°35' W 009°50'1616.0
2017-Mar-16 14:33N 38°20' W 009°45'1616.2
2017-Mar-16 13:33N 38°04' W 009°40'1716.7
2017-Mar-16 12:33N 37°48' W 009°36'7514.7
2017-Mar-16 07:28N 36°40' W 008°55'  

Dump ship's entire track history